createdAt,value
2022-09-16T00:00:43.441Z,1.03
2022-09-16T00:03:11.269Z,0.83
2022-09-16T00:05:44.148Z,0.80
2022-09-16T00:08:12.723Z,1.10
2022-09-16T00:10:40.789Z,1.00
2022-09-16T00:13:09.091Z,0.70
2022-09-16T00:15:37.104Z,0.90
2022-09-16T00:18:05.118Z,1.47
2022-09-16T00:20:32.972Z,0.70
2022-09-16T00:23:02.225Z,1.00
2022-09-16T00:25:30.034Z,0.70
2022-09-16T00:27:57.844Z,0.80
2022-09-16T00:30:25.674Z,0.50
2022-09-16T00:32:53.883Z,0.97
2022-09-16T00:35:22.833Z,0.60
2022-09-16T00:37:50.668Z,0.70
2022-09-16T00:40:19.986Z,0.70
2022-09-16T00:42:47.846Z,0.90
2022-09-16T00:45:18.011Z,0.60
2022-09-16T00:47:49.649Z,0.53
2022-09-16T00:50:22.409Z,0.70
2022-09-16T00:52:51.450Z,0.70
2022-09-16T00:55:24.894Z,0.80
2022-09-16T00:57:53.723Z,1.03
2022-09-16T01:00:21.697Z,0.93
2022-09-16T01:02:51.092Z,0.90
2022-09-16T01:05:22.615Z,0.90
2022-09-16T01:07:52.602Z,0.83
2022-09-16T01:10:23.941Z,0.80
2022-09-16T01:12:56.432Z,0.63
2022-09-16T01:15:31.880Z,0.60
2022-09-16T01:18:15.524Z,1.00
2022-09-16T01:21:07.234Z,1.60
2022-09-16T01:24:04.047Z,1.70
2022-09-16T01:27:00.493Z,1.20
2022-09-16T01:29:40.060Z,2.20
2022-09-16T01:32:15.482Z,1.17
2022-09-16T01:34:52.718Z,1.57
2022-09-16T01:37:30.093Z,1.00
2022-09-16T01:40:07.140Z,0.90
2022-09-16T01:42:40.470Z,0.80
2022-09-16T01:45:16.365Z,1.07
2022-09-16T01:47:53.696Z,1.00
2022-09-16T01:50:26.984Z,0.73
2022-09-16T01:53:02.168Z,0.70
2022-09-16T01:55:36.742Z,0.60
2022-09-16T01:58:11.978Z,0.70
2022-09-16T02:00:42.701Z,1.10
2022-09-16T02:03:15.952Z,0.60
2022-09-16T02:05:49.472Z,0.73
2022-09-16T02:08:21.822Z,1.37
2022-09-16T02:10:54.902Z,0.80
2022-09-16T02:13:26.868Z,0.70
2022-09-16T02:16:00.170Z,0.70
2022-09-16T02:18:34.249Z,0.70
2022-09-16T02:21:05.400Z,0.77
2022-09-16T02:23:39.554Z,0.90
2022-09-16T02:26:10.387Z,0.90
2022-09-16T02:28:41.084Z,1.20
2022-09-16T02:31:13.033Z,1.30
2022-09-16T02:33:48.329Z,0.83
2022-09-16T02:36:20.594Z,0.70
2022-09-16T02:38:53.604Z,0.83
2022-09-16T02:41:21.706Z,1.13
2022-09-16T02:43:49.425Z,0.90
2022-09-16T02:46:25.518Z,0.80
2022-09-16T02:49:03.305Z,0.93
2022-09-16T02:51:37.408Z,0.60
2022-09-16T02:54:11.752Z,0.80
2022-09-16T02:56:42.275Z,0.83
2022-09-16T02:59:12.996Z,0.90
2022-09-16T03:01:42.903Z,0.80
2022-09-16T03:04:15.092Z,0.80
2022-09-16T03:06:43.116Z,0.93
2022-09-16T03:09:13.377Z,0.70
2022-09-16T03:11:49.192Z,0.70
2022-09-16T03:14:43.705Z,0.70
2022-09-16T03:17:23.410Z,0.70
2022-09-16T03:20:02.133Z,1.20
2022-09-16T03:22:42.266Z,1.20
2022-09-16T03:25:19.621Z,0.97
2022-09-16T03:27:52.211Z,0.97
2022-09-16T03:30:20.316Z,0.93
2022-09-16T03:32:54.049Z,0.87
2022-09-16T03:35:28.534Z,1.33
2022-09-16T03:37:59.142Z,0.90
2022-09-16T03:40:29.738Z,1.03
2022-09-16T03:42:59.414Z,1.10
2022-09-16T03:45:27.173Z,0.70
2022-09-16T03:47:54.959Z,0.97
2022-09-16T03:50:24.051Z,0.80
2022-09-16T03:52:51.853Z,1.60
2022-09-16T03:55:19.627Z,0.97
2022-09-16T03:57:47.407Z,1.00
2022-09-16T04:00:16.399Z,1.00
2022-09-16T04:02:44.276Z,0.90
2022-09-16T04:05:12.134Z,0.93
2022-09-16T04:07:41.392Z,1.00
2022-09-16T04:10:12.148Z,0.93
2022-09-16T04:12:39.955Z,1.00
2022-09-16T04:15:08.423Z,0.87
2022-09-16T04:17:36.368Z,1.10
2022-09-16T04:20:05.298Z,0.90
2022-09-16T04:22:33.404Z,0.83
2022-09-16T04:25:02.575Z,1.10
2022-09-16T04:27:30.318Z,1.03
2022-09-16T04:29:58.759Z,0.83
2022-09-16T04:32:26.744Z,1.50
2022-09-16T04:34:55.350Z,1.43
2022-09-16T04:37:23.126Z,1.23
2022-09-16T04:39:50.917Z,1.20
2022-09-16T04:42:20.035Z,1.00
2022-09-16T04:44:48.028Z,1.20
2022-09-16T04:47:15.776Z,0.60
2022-09-16T04:49:43.514Z,1.63
2022-09-16T04:52:11.676Z,1.00
2022-09-16T04:54:39.448Z,1.10
2022-09-16T04:57:07.267Z,1.23
2022-09-16T04:59:36.344Z,1.20
2022-09-16T05:02:04.110Z,1.00
2022-09-16T05:04:31.876Z,1.00
2022-09-16T05:06:59.603Z,0.90
2022-09-16T05:09:27.433Z,1.20
2022-09-16T05:11:55.210Z,2.47
2022-09-16T05:14:22.947Z,1.37
2022-09-16T05:16:52.039Z,1.00
2022-09-16T05:19:19.961Z,1.20
2022-09-16T05:21:47.672Z,1.00
2022-09-16T05:24:15.863Z,1.10
2022-09-16T05:26:44.554Z,0.90
2022-09-16T05:29:14.286Z,0.97
2022-09-16T05:31:44.014Z,0.93
2022-09-16T05:34:16.336Z,1.03
2022-09-16T05:36:47.445Z,1.17
2022-09-16T05:39:23.290Z,0.90
2022-09-16T05:41:55.245Z,1.10
2022-09-16T05:44:23.710Z,0.83
2022-09-16T05:46:51.488Z,0.80
2022-09-16T05:49:21.541Z,1.00
2022-09-16T05:51:50.388Z,0.77
2022-09-16T05:54:19.135Z,0.80
2022-09-16T05:56:47.497Z,1.00
2022-09-16T05:59:16.372Z,1.30
2022-09-16T06:01:44.762Z,1.63
2022-09-16T06:04:14.151Z,1.67
2022-09-16T06:06:44.587Z,1.40
2022-09-16T06:09:14.822Z,1.43
2022-09-16T06:11:45.756Z,1.40
2022-09-16T06:14:14.505Z,1.43
2022-09-16T06:16:42.768Z,1.00
2022-09-16T06:19:13.567Z,1.40
2022-09-16T06:21:44.424Z,1.30
2022-09-16T06:24:12.995Z,1.27
2022-09-16T06:26:42.682Z,1.60
2022-09-16T06:29:11.025Z,1.70
2022-09-16T06:31:39.443Z,1.33
2022-09-16T06:34:08.247Z,1.20
2022-09-16T06:36:42.681Z,0.80
2022-09-16T06:39:14.433Z,0.80
2022-09-16T06:41:42.220Z,1.00
2022-09-16T06:44:10.166Z,0.90
2022-09-16T06:46:38.727Z,1.47
2022-09-16T06:49:06.921Z,1.00
2022-09-16T06:51:35.874Z,1.27
2022-09-16T06:54:05.996Z,1.03
2022-09-16T06:56:36.200Z,0.73
2022-09-16T06:59:04.505Z,1.00
2022-09-16T07:01:33.642Z,1.10
2022-09-16T07:04:05.350Z,1.10
2022-09-16T07:09:22.192Z,1.00
2022-09-16T07:11:51.298Z,0.83
2022-09-16T07:14:19.357Z,0.70
2022-09-16T07:16:47.234Z,0.70
2022-09-16T07:19:15.042Z,0.63
2022-09-16T07:21:42.827Z,0.83
2022-09-16T07:24:13.165Z,0.80
2022-09-16T07:26:42.270Z,0.80
2022-09-16T07:29:12.959Z,0.80
2022-09-16T07:31:40.819Z,0.90
2022-09-16T07:34:11.258Z,0.70
2022-09-16T07:36:41.345Z,1.00
2022-09-16T07:39:10.047Z,0.93
2022-09-16T07:41:39.783Z,1.10
2022-09-16T07:44:09.641Z,0.90
2022-09-16T07:46:38.992Z,0.70
2022-09-16T07:49:09.428Z,1.20
2022-09-16T07:51:37.345Z,1.00
2022-09-16T07:54:10.197Z,1.03
2022-09-16T07:56:39.788Z,1.20
2022-09-16T07:59:14.282Z,1.00
2022-09-16T08:01:47.021Z,1.10
2022-09-16T08:04:14.832Z,1.10
2022-09-16T08:06:42.754Z,1.33
2022-09-16T08:09:34.494Z,0.93
2022-09-16T08:11:58.560Z,1.10
2022-09-16T08:14:26.825Z,1.67
2022-09-16T08:16:55.985Z,1.30
2022-09-16T08:19:23.763Z,1.30
2022-09-16T08:21:52.555Z,0.80
2022-09-16T08:24:20.556Z,1.10
2022-09-16T08:26:48.356Z,0.80
2022-09-16T08:29:16.540Z,1.10
2022-09-16T08:31:44.690Z,1.13
2022-09-16T08:34:13.894Z,0.73
2022-09-16T08:36:41.640Z,1.03
2022-09-16T08:39:10.819Z,1.20
2022-09-16T08:42:29.139Z,1.10
2022-09-16T08:45:09.203Z,0.90
2022-09-16T08:47:50.494Z,0.87
2022-09-16T08:50:31.024Z,0.80
2022-09-16T08:53:02.326Z,1.37
2022-09-16T08:55:33.684Z,0.90
2022-09-16T08:58:05.967Z,1.20
2022-09-16T09:00:34.434Z,1.03
2022-09-16T09:03:15.676Z,1.07
2022-09-16T09:05:51.513Z,1.50
2022-09-16T09:08:36.735Z,1.30
2022-09-16T09:11:14.066Z,1.53
2022-09-16T09:13:56.026Z,1.23
2022-09-16T09:16:34.240Z,1.40
2022-09-16T09:19:14.744Z,0.97
2022-09-16T09:21:51.940Z,1.37
2022-09-16T09:24:32.404Z,0.90
2022-09-16T09:27:05.836Z,0.93
2022-09-16T09:30:03.300Z,0.80
2022-09-16T09:32:49.419Z,0.80
2022-09-16T09:35:32.132Z,1.00
2022-09-16T09:38:27.460Z,1.13
2022-09-16T09:41:00.858Z,0.97
2022-09-16T09:43:33.748Z,0.70
2022-09-16T09:46:12.425Z,0.70
2022-09-16T09:48:45.819Z,0.93
2022-09-16T09:51:21.000Z,1.10
2022-09-16T09:53:54.499Z,0.90
2022-09-16T09:56:29.372Z,1.50
2022-09-16T09:59:03.968Z,0.77
2022-09-16T10:01:31.748Z,0.77
2022-09-16T10:04:00.337Z,1.13
2022-09-16T10:06:30.901Z,0.70
2022-09-16T10:09:00.557Z,0.80
2022-09-16T10:11:31.012Z,0.80
2022-09-16T10:14:00.940Z,0.70
2022-09-16T10:16:31.640Z,1.00
2022-09-16T10:19:03.285Z,1.20
2022-09-16T10:21:42.424Z,0.93
2022-09-16T10:24:31.966Z,0.70
2022-09-16T10:27:00.322Z,0.60
2022-09-16T10:29:28.572Z,0.87
2022-09-16T10:31:59.176Z,1.10
2022-09-16T10:34:33.262Z,0.90
2022-09-16T10:37:03.891Z,0.90
2022-09-16T10:39:33.966Z,0.63
2022-09-16T10:42:03.207Z,0.60
2022-09-16T10:44:33.031Z,0.80
2022-09-16T10:47:03.255Z,0.70
2022-09-16T10:49:38.645Z,0.90
2022-09-16T10:52:15.375Z,0.60
2022-09-16T10:54:45.268Z,0.70
2022-09-16T10:57:24.703Z,1.43
2022-09-16T11:00:14.736Z,0.93
2022-09-16T11:03:03.213Z,1.03
2022-09-16T11:05:37.016Z,1.33
2022-09-16T11:08:12.566Z,1.00
2022-09-16T11:10:49.573Z,1.97
2022-09-16T11:13:35.736Z,0.60
2022-09-16T11:16:31.583Z,0.80
2022-09-16T11:19:10.902Z,0.70
2022-09-16T11:21:58.755Z,0.70
2022-09-16T11:24:48.975Z,0.80
2022-09-16T11:27:27.793Z,0.50
2022-09-16T11:30:04.872Z,1.23
2022-09-16T11:32:50.259Z,0.93
2022-09-16T11:35:37.904Z,0.97
2022-09-16T11:38:19.299Z,1.13
2022-09-16T11:40:52.453Z,1.33
2022-09-16T11:43:49.674Z,1.00
2022-09-16T11:46:23.652Z,0.93
2022-09-16T11:49:05.991Z,1.10
2022-09-16T11:51:50.208Z,1.43
2022-09-16T11:54:40.848Z,1.30
2022-09-16T11:57:14.580Z,1.13
2022-09-16T11:59:50.387Z,1.40
2022-09-16T12:02:23.672Z,1.10
2022-09-16T12:04:57.737Z,1.00
2022-09-16T12:07:31.013Z,0.70
2022-09-16T12:10:03.075Z,0.97
2022-09-16T12:12:34.876Z,0.97
2022-09-16T12:15:13.664Z,0.77
2022-09-16T12:17:45.595Z,0.73
2022-09-16T12:20:17.473Z,0.40
2022-09-16T12:22:49.849Z,0.70
2022-09-16T12:25:23.902Z,1.00
2022-09-16T12:27:55.058Z,0.80
2022-09-16T12:30:29.657Z,0.97
2022-09-16T12:33:02.580Z,0.70
2022-09-16T12:35:34.077Z,0.97
2022-09-16T12:38:02.090Z,0.63
2022-09-16T12:40:35.249Z,0.67
2022-09-16T12:43:24.084Z,0.70
2022-09-16T12:46:19.885Z,0.90
2022-09-16T12:49:24.811Z,0.60
2022-09-16T12:52:16.488Z,0.70
2022-09-16T12:55:14.475Z,0.80
2022-09-16T12:57:56.013Z,0.73
2022-09-16T13:00:25.882Z,1.00
2022-09-16T13:02:58.005Z,0.70
2022-09-16T13:05:33.046Z,0.87
2022-09-16T13:08:05.821Z,0.93
2022-09-16T13:13:31.795Z,1.10
2022-09-16T13:16:01.715Z,1.03
2022-09-16T13:18:43.630Z,1.30
2022-09-16T13:21:23.708Z,1.47
2022-09-16T13:24:01.562Z,1.77
2022-09-16T13:26:40.947Z,1.50
2022-09-16T13:29:39.875Z,1.00
2022-09-16T13:32:26.843Z,1.57
2022-09-16T13:35:22.001Z,1.40
2022-09-16T13:37:51.704Z,1.33
2022-09-16T13:40:21.608Z,1.40
2022-09-16T13:42:49.382Z,1.40
2022-09-16T13:45:34.400Z,1.40
2022-09-16T13:48:10.679Z,1.10
2022-09-16T13:50:43.764Z,1.83
2022-09-16T13:53:12.242Z,1.40
2022-09-16T13:55:42.733Z,2.00
2022-09-16T13:58:20.342Z,1.17
2022-09-16T14:00:58.569Z,1.90
2022-09-16T14:03:45.657Z,1.53
2022-09-16T14:06:52.779Z,1.40
2022-09-16T14:09:45.482Z,1.03
2022-09-16T14:12:21.903Z,1.30
2022-09-16T14:14:52.401Z,1.20
2022-09-16T14:17:24.178Z,1.97
2022-09-16T14:19:57.327Z,1.10
2022-09-16T14:22:27.988Z,1.33
2022-09-16T14:25:06.283Z,1.37
2022-09-16T14:27:43.444Z,1.30
2022-09-16T14:30:16.814Z,1.10
2022-09-16T14:32:45.797Z,1.20
2022-09-16T14:35:19.675Z,1.10
2022-09-16T14:37:52.377Z,1.07
2022-09-16T14:40:22.670Z,1.10
2022-09-16T14:42:53.997Z,1.10
2022-09-16T14:45:22.178Z,1.47
2022-09-16T14:47:52.285Z,1.77
2022-09-16T14:50:23.321Z,1.20
2022-09-16T14:52:57.218Z,1.00
2022-09-16T14:55:26.673Z,1.37
2022-09-16T14:57:54.459Z,1.30
2022-09-16T15:00:22.738Z,2.37
2022-09-16T15:02:54.274Z,1.10
2022-09-16T15:05:26.396Z,1.07
2022-09-16T15:08:13.749Z,1.07
2022-09-16T15:10:51.881Z,1.17
2022-09-16T15:13:22.081Z,2.30
2022-09-16T15:15:53.398Z,1.20
2022-09-16T15:18:25.699Z,1.30
2022-09-16T15:21:00.620Z,1.10
2022-09-16T15:23:30.587Z,1.00
2022-09-16T15:26:03.884Z,1.10
2022-09-16T15:28:31.692Z,1.30
2022-09-16T15:30:59.699Z,1.10
2022-09-16T15:33:34.534Z,1.00
2022-09-16T15:36:03.423Z,1.07
2022-09-16T15:38:32.591Z,1.10
2022-09-16T15:41:04.798Z,1.43
2022-09-16T15:43:39.777Z,1.40
2022-09-16T15:46:16.126Z,1.40
2022-09-16T15:48:47.455Z,1.40
2022-09-16T15:51:29.204Z,1.30
2022-09-16T15:54:07.675Z,1.10
2022-09-16T15:56:44.493Z,1.40
2022-09-16T15:59:26.710Z,1.10
2022-09-16T16:01:56.931Z,1.07
2022-09-16T16:04:27.892Z,1.00
2022-09-16T16:06:57.119Z,1.00
2022-09-16T16:09:35.816Z,1.30
2022-09-16T16:12:07.587Z,1.40
2022-09-16T16:14:36.240Z,1.40
2022-09-16T16:17:13.276Z,0.93
2022-09-16T16:19:42.521Z,1.50
2022-09-16T16:22:10.380Z,1.27
2022-09-16T16:24:39.585Z,1.70
2022-09-16T16:27:09.527Z,1.97
2022-09-16T16:29:38.917Z,1.50
2022-09-16T16:32:09.555Z,1.80
2022-09-16T16:34:40.440Z,2.43
2022-09-16T16:37:09.471Z,1.77
2022-09-16T16:39:38.845Z,1.83
2022-09-16T16:42:08.062Z,2.43
2022-09-16T16:44:36.400Z,1.67
2022-09-16T16:47:04.651Z,2.00
2022-09-16T16:49:33.813Z,1.67
2022-09-16T16:52:02.431Z,2.30
2022-09-16T16:54:30.678Z,1.70
2022-09-16T16:57:00.612Z,1.60
2022-09-16T16:59:28.928Z,1.50
2022-09-16T17:01:58.370Z,2.00
2022-09-16T17:04:27.108Z,1.77
2022-09-16T17:07:21.570Z,1.90
2022-09-16T17:09:42.877Z,1.40
2022-09-16T17:12:12.918Z,1.60
2022-09-16T17:14:40.792Z,2.20
2022-09-16T17:17:09.012Z,1.73
2022-09-16T17:19:36.766Z,1.27
2022-09-16T17:22:04.585Z,1.63
2022-09-16T17:24:33.075Z,1.40
2022-09-16T17:27:01.474Z,1.77
2022-09-16T17:29:30.686Z,1.77
2022-09-16T17:32:00.645Z,1.90
2022-09-16T17:34:28.532Z,1.70
2022-09-16T17:36:57.325Z,1.87
2022-09-16T17:39:25.069Z,1.50
2022-09-16T17:41:54.334Z,1.83
2022-09-16T17:44:22.296Z,1.60
2022-09-16T17:46:51.404Z,1.50
2022-09-16T17:49:21.460Z,2.00
2022-09-16T17:51:50.248Z,1.80
2022-09-16T17:54:18.267Z,1.60
2022-09-16T17:56:46.281Z,2.10
2022-09-16T17:59:16.706Z,1.30
2022-09-16T18:01:44.704Z,1.50
2022-09-16T18:04:14.036Z,1.83
2022-09-16T18:06:44.457Z,2.13
2022-09-16T18:09:13.096Z,2.33
2022-09-16T18:11:41.386Z,1.47
2022-09-16T18:14:11.840Z,1.90
2022-09-16T18:16:40.751Z,1.50
2022-09-16T18:19:08.577Z,1.80
2022-09-16T18:21:38.167Z,1.63
2022-09-16T18:24:10.851Z,1.53
2022-09-16T18:26:38.993Z,1.90
2022-09-16T18:29:11.541Z,1.83
2022-09-16T18:31:47.411Z,1.90
2022-09-16T18:34:16.264Z,1.30
2022-09-16T18:36:45.772Z,2.60
2022-09-16T18:39:15.727Z,2.23
2022-09-16T18:41:45.771Z,2.17
2022-09-16T18:44:15.592Z,2.43
2022-09-16T18:46:43.553Z,2.00
2022-09-16T18:49:12.909Z,3.20
2022-09-16T18:51:47.260Z,2.53
2022-09-16T18:54:24.398Z,2.97
2022-09-16T18:56:52.223Z,2.33
2022-09-16T18:59:24.253Z,3.07
2022-09-16T19:01:54.146Z,2.07
2022-09-16T19:04:23.730Z,2.50
2022-09-16T19:06:53.318Z,3.00
2022-09-16T19:09:24.194Z,2.40
2022-09-16T19:11:53.941Z,2.20
2022-09-16T19:14:24.900Z,2.30
2022-09-16T19:16:53.808Z,2.00
2022-09-16T19:19:22.774Z,2.67
2022-09-16T19:21:50.754Z,2.07
2022-09-16T19:24:21.072Z,2.87
2022-09-16T19:26:52.546Z,2.03
2022-09-16T19:29:21.285Z,2.23
2022-09-16T19:31:51.624Z,2.07
2022-09-16T19:34:19.960Z,2.60
2022-09-16T19:36:47.920Z,2.40
2022-09-16T19:39:15.933Z,3.37
2022-09-16T19:41:44.037Z,2.47
2022-09-16T19:44:15.604Z,2.27
2022-09-16T19:46:44.817Z,2.60
2022-09-16T19:49:16.502Z,2.20
2022-09-16T19:51:44.516Z,1.97
2022-09-16T19:54:12.923Z,2.00
2022-09-16T19:56:40.972Z,1.80
2022-09-16T19:59:09.105Z,1.40
2022-09-16T20:01:39.015Z,1.67
2022-09-16T20:04:09.400Z,1.87
2022-09-16T20:06:39.040Z,1.53
2022-09-16T20:09:08.572Z,1.70
2022-09-16T20:11:37.860Z,1.30
2022-09-16T20:14:08.096Z,1.53
2022-09-16T20:16:39.251Z,1.70
2022-09-16T20:19:09.579Z,1.40
2022-09-16T20:21:37.822Z,1.70
2022-09-16T20:24:07.822Z,1.70
2022-09-16T20:26:36.700Z,3.27
2022-09-16T20:29:05.341Z,1.80
2022-09-16T20:31:35.164Z,1.97
2022-09-16T20:34:04.935Z,1.67
2022-09-16T20:36:36.881Z,1.93
2022-09-16T20:39:04.979Z,1.47
2022-09-16T20:41:34.439Z,2.00
2022-09-16T20:44:02.545Z,1.60
2022-09-16T20:46:31.995Z,1.53
2022-09-16T20:49:01.594Z,1.50
2022-09-16T20:51:33.376Z,1.47
2022-09-16T20:54:07.386Z,1.30
2022-09-16T20:56:38.838Z,1.30
2022-09-16T20:59:08.055Z,1.27
2022-09-16T21:01:36.935Z,1.50
2022-09-16T21:04:06.510Z,1.17
2022-09-16T21:06:36.829Z,1.30
2022-09-16T21:09:08.069Z,1.57
2022-09-16T21:11:36.084Z,1.70
2022-09-16T21:14:12.533Z,2.17
2022-09-16T21:16:41.462Z,1.40
2022-09-16T21:19:11.231Z,1.70
2022-09-16T21:21:42.280Z,1.67
2022-09-16T21:24:10.154Z,1.97
2022-09-16T21:26:40.128Z,2.00
2022-09-16T21:29:09.866Z,1.50
2022-09-16T21:31:38.889Z,2.00
2022-09-16T21:34:07.974Z,1.57
2022-09-16T21:36:37.535Z,1.60
2022-09-16T21:39:07.189Z,1.80
2022-09-16T21:41:35.320Z,1.90
2022-09-16T21:44:03.845Z,2.50
2022-09-16T21:46:33.980Z,1.90
2022-09-16T21:49:03.652Z,1.90
2022-09-16T21:51:35.274Z,1.70
2022-09-16T21:54:03.840Z,1.80
2022-09-16T21:56:33.335Z,2.20
2022-09-16T21:59:01.273Z,2.47
2022-09-16T22:01:31.539Z,1.90
2022-09-16T22:04:02.288Z,1.60
2022-09-16T22:06:30.833Z,1.70
2022-09-16T22:09:01.572Z,3.47
2022-09-16T22:11:32.384Z,2.07
2022-09-16T22:14:00.831Z,2.23
2022-09-16T22:16:31.108Z,1.80
2022-09-16T22:19:01.631Z,2.73
2022-09-16T22:21:31.739Z,1.60
2022-09-16T22:24:00.037Z,1.80
2022-09-16T22:26:29.215Z,1.50
2022-09-16T22:28:58.827Z,2.20
2022-09-16T22:31:28.642Z,1.37
2022-09-16T22:33:58.728Z,1.77
2022-09-16T22:36:28.291Z,1.33
2022-09-16T22:38:57.805Z,1.90
2022-09-16T22:41:26.416Z,2.13
2022-09-16T22:43:55.063Z,2.50
2022-09-16T22:46:27.074Z,1.90
2022-09-16T22:48:56.738Z,1.50
2022-09-16T22:51:25.304Z,1.33
2022-09-16T22:53:54.189Z,2.13
2022-09-16T22:56:24.788Z,1.43
2022-09-16T22:58:54.341Z,1.83
2022-09-16T23:01:25.810Z,1.53
2022-09-16T23:03:55.162Z,1.40
2022-09-16T23:06:24.540Z,1.47
2022-09-16T23:08:53.227Z,1.67
2022-09-16T23:11:24.192Z,1.60
2022-09-16T23:13:52.718Z,1.07
2022-09-16T23:16:22.908Z,1.37
2022-09-16T23:18:52.205Z,1.40
2022-09-16T23:21:22.176Z,1.73
2022-09-16T23:23:51.808Z,1.43
2022-09-16T23:26:21.069Z,1.53
2022-09-16T23:28:52.488Z,1.43
2022-09-16T23:31:22.153Z,1.40
2022-09-16T23:33:49.992Z,1.67
2022-09-16T23:36:19.893Z,1.57
2022-09-16T23:38:49.085Z,1.27
2022-09-16T23:41:19.641Z,1.30
2022-09-16T23:43:48.426Z,1.30
2022-09-16T23:46:18.499Z,1.27
2022-09-16T23:48:46.840Z,1.10
2022-09-16T23:51:15.126Z,1.57
2022-09-16T23:53:45.003Z,1.67
2022-09-16T23:56:14.697Z,1.80
2022-09-16T23:58:43.189Z,1.80
